createdAt,value
2023-12-18T00:00:34.255Z,103283.72
2023-12-18T00:03:00.964Z,103278.53
2023-12-18T00:05:27.592Z,103281.13
2023-12-18T00:07:54.233Z,103277.66
2023-12-18T00:10:20.767Z,103274.22
2023-12-18T00:12:47.331Z,103269.91
2023-12-18T00:15:14.205Z,103267.31
2023-12-18T00:17:41.204Z,103268.19
2023-12-18T00:20:08.133Z,103264.72
2023-12-18T00:22:34.611Z,103268.19
2023-12-18T00:25:01.116Z,103269.91
2023-12-18T00:27:28.106Z,103265.59
2023-12-18T00:29:54.616Z,103265.59
2023-12-18T00:32:21.396Z,103265.59
2023-12-18T00:34:48.063Z,103260.41
2023-12-18T00:37:14.874Z,103273.34
2023-12-18T00:39:41.424Z,103268.16
2023-12-18T00:42:08.077Z,103270.75
2023-12-18T00:44:34.570Z,103255.22
2023-12-18T00:47:01.103Z,103246.59
2023-12-18T00:49:29.391Z,103248.31
2023-12-18T00:51:56.509Z,103246.56
2023-12-18T00:54:23.150Z,103247.44
2023-12-18T00:56:49.932Z,103236.22
2023-12-18T00:59:16.463Z,103250.06
2023-12-18T01:01:43.490Z,103251.78
2023-12-18T01:04:10.197Z,103251.78
2023-12-18T01:06:37.147Z,103250.06
2023-12-18T01:09:04.408Z,103251.75
2023-12-18T01:11:30.938Z,103260.41
2023-12-18T01:13:57.593Z,103260.41
2023-12-18T01:16:24.071Z,103251.78
2023-12-18T01:18:50.807Z,103251.78
2023-12-18T01:21:17.590Z,103253.50
2023-12-18T01:23:44.091Z,103246.59
2023-12-18T01:26:10.537Z,103240.56
2023-12-18T01:28:37.067Z,103249.19
2023-12-18T01:31:03.846Z,103249.19
2023-12-18T01:33:30.518Z,103245.75
2023-12-18T01:35:57.056Z,103250.94
2023-12-18T01:38:23.521Z,103248.31
2023-12-18T01:40:49.987Z,103241.41
2023-12-18T01:43:26.010Z,103244.88
2023-12-18T01:46:00.165Z,103242.28
2023-12-18T01:48:28.091Z,103243.13
2023-12-18T01:50:56.092Z,103243.13
2023-12-18T01:53:28.643Z,103243.13
2023-12-18T01:55:57.086Z,103239.69
2023-12-18T01:58:24.340Z,103241.41
2023-12-18T02:00:52.632Z,103234.50
2023-12-18T02:03:20.441Z,103238.84
2023-12-18T02:05:47.622Z,103242.28
2023-12-18T02:08:15.048Z,103243.13
2023-12-18T02:10:41.583Z,103249.19
2023-12-18T02:13:08.227Z,103250.03
2023-12-18T02:15:35.135Z,103250.03
2023-12-18T02:18:01.759Z,103250.03
2023-12-18T02:20:28.339Z,103250.91
2023-12-18T02:22:54.796Z,103244.88
2023-12-18T02:25:22.296Z,103235.38
2023-12-18T02:27:50.378Z,103231.91
2023-12-18T02:30:18.444Z,103241.41
2023-12-18T02:32:45.208Z,103230.16
2023-12-18T02:35:12.579Z,103217.22
2023-12-18T02:37:40.330Z,103229.31
2023-12-18T02:40:07.826Z,103228.44
2023-12-18T02:42:34.597Z,103227.56
2023-12-18T02:45:02.600Z,103220.66
2023-12-18T02:47:29.592Z,103209.47
2023-12-18T02:49:56.324Z,103203.41
2023-12-18T02:52:22.859Z,103203.41
2023-12-18T02:54:49.322Z,103201.66
2023-12-18T02:57:15.871Z,103209.44
2023-12-18T02:59:42.423Z,103214.63
2023-12-18T03:02:08.953Z,103210.31
2023-12-18T03:04:39.082Z,103208.59
2023-12-18T03:07:05.705Z,103211.19
2023-12-18T03:09:32.346Z,103211.16
2023-12-18T03:11:58.813Z,103215.50
2023-12-18T03:14:25.297Z,103212.06
2023-12-18T03:16:51.785Z,103213.75
2023-12-18T03:19:20.038Z,103200.81
2023-12-18T03:21:47.145Z,103202.53
2023-12-18T03:24:14.022Z,103202.53
2023-12-18T03:26:40.484Z,103206.00
2023-12-18T03:29:07.077Z,103210.31
2023-12-18T03:31:33.736Z,103206.00
2023-12-18T03:34:01.154Z,103211.16
2023-12-18T03:36:29.031Z,103212.00
2023-12-18T03:38:55.538Z,103203.38
2023-12-18T03:41:22.022Z,103201.66
2023-12-18T03:43:48.545Z,103211.16
2023-12-18T03:46:15.119Z,103203.41
2023-12-18T03:48:41.734Z,103207.72
2023-12-18T03:51:08.395Z,103210.28
2023-12-18T03:53:34.926Z,103211.16
2023-12-18T03:56:01.514Z,103208.56
2023-12-18T03:58:28.009Z,103197.34
2023-12-18T04:00:54.653Z,103196.47
2023-12-18T04:03:21.279Z,103203.38
2023-12-18T04:05:47.809Z,103194.72
2023-12-18T04:08:14.361Z,103198.22
2023-12-18T04:10:40.817Z,103201.63
2023-12-18T04:13:07.356Z,103197.31
2023-12-18T04:15:33.974Z,103201.66
2023-12-18T04:18:00.624Z,103199.91
2023-12-18T04:20:27.189Z,103199.03
2023-12-18T04:22:53.807Z,103202.50
2023-12-18T04:25:20.371Z,103192.13
2023-12-18T04:27:47.070Z,103191.25
2023-12-18T04:30:14.095Z,103195.56
2023-12-18T04:32:40.780Z,103194.72
2023-12-18T04:35:07.602Z,103189.53
2023-12-18T04:37:35.193Z,103191.25
2023-12-18T04:40:02.171Z,103197.31
2023-12-18T04:42:29.070Z,103199.03
2023-12-18T04:44:55.629Z,103212.00
2023-12-18T04:47:22.150Z,103205.06
2023-12-18T04:49:48.810Z,103202.50
2023-12-18T04:52:15.453Z,103199.06
2023-12-18T04:54:42.033Z,103200.78
2023-12-18T04:57:08.652Z,103198.22
2023-12-18T04:59:35.134Z,103195.59
2023-12-18T05:02:01.594Z,103205.97
2023-12-18T05:04:28.172Z,103203.38
2023-12-18T05:06:54.978Z,103203.41
2023-12-18T05:09:21.466Z,103196.47
2023-12-18T05:11:48.025Z,103199.94
2023-12-18T05:14:14.475Z,103186.13
2023-12-18T05:16:41.037Z,103186.97
2023-12-18T05:19:07.607Z,103180.09
2023-12-18T05:21:34.199Z,103180.09
2023-12-18T05:24:00.713Z,103174.03
2023-12-18T05:26:27.188Z,103174.91
2023-12-18T05:28:53.677Z,103171.44
2023-12-18T05:31:21.530Z,103172.31
2023-12-18T05:33:48.332Z,103183.56
2023-12-18T05:36:15.722Z,103183.53
2023-12-18T05:38:42.308Z,103176.63
2023-12-18T05:41:10.091Z,103185.28
2023-12-18T05:43:36.599Z,103180.97
2023-12-18T05:46:03.207Z,103180.97
2023-12-18T05:48:30.130Z,103180.09
2023-12-18T05:50:56.750Z,103182.69
2023-12-18T05:53:23.217Z,103200.84
2023-12-18T05:55:49.932Z,103187.00
2023-12-18T05:58:16.413Z,103195.66
2023-12-18T06:00:42.959Z,103192.19
2023-12-18T06:03:09.958Z,103181.84
2023-12-18T06:05:36.526Z,103179.25
2023-12-18T06:08:03.069Z,103171.47
2023-12-18T06:10:29.911Z,103182.69
2023-12-18T06:12:56.514Z,103187.00
2023-12-18T06:15:23.193Z,103186.16
2023-12-18T06:17:49.718Z,103170.63
2023-12-18T06:20:16.176Z,103163.69
2023-12-18T06:22:42.845Z,103166.28
2023-12-18T06:25:09.874Z,103168.00
2023-12-18T06:27:36.388Z,103168.88
2023-12-18T06:30:03.459Z,103168.03
2023-12-18T06:32:30.200Z,103174.06
2023-12-18T06:34:57.103Z,103174.94
2023-12-18T06:37:26.299Z,103180.94
2023-12-18T06:39:53.564Z,103178.34
2023-12-18T06:42:20.072Z,103175.78
2023-12-18T06:44:46.583Z,103171.44
2023-12-18T06:47:13.304Z,103170.59
2023-12-18T06:49:39.860Z,103173.19
2023-12-18T06:52:06.437Z,103182.69
2023-12-18T06:54:34.665Z,103182.69
2023-12-18T06:57:02.449Z,103188.72
2023-12-18T06:59:28.967Z,103185.28
2023-12-18T07:01:55.540Z,103179.22
2023-12-18T07:04:22.306Z,103191.31
2023-12-18T07:06:48.899Z,103183.53
2023-12-18T07:09:15.475Z,103182.69
2023-12-18T07:11:42.014Z,103172.31
2023-12-18T07:14:08.676Z,103168.84
2023-12-18T07:16:35.230Z,103169.72
2023-12-18T07:19:02.050Z,103170.59
2023-12-18T07:21:28.637Z,103172.31
2023-12-18T07:23:55.266Z,103173.19
2023-12-18T07:26:23.066Z,103172.31
2023-12-18T07:28:49.542Z,103162.81
2023-12-18T07:31:16.352Z,103159.34
2023-12-18T07:33:42.976Z,103158.50
2023-12-18T07:36:10.649Z,103160.22
2023-12-18T07:38:37.214Z,103156.75
2023-12-18T07:41:06.680Z,103165.41
2023-12-18T07:43:33.294Z,103155.06
2023-12-18T07:45:59.865Z,103157.63
2023-12-18T07:48:26.680Z,103155.88
2023-12-18T07:50:53.895Z,103160.22
2023-12-18T07:53:20.386Z,103165.41
2023-12-18T07:55:46.882Z,103163.69
2023-12-18T07:58:13.400Z,103167.16
2023-12-18T08:00:40.005Z,103158.47
2023-12-18T08:03:06.652Z,103161.09
2023-12-18T08:05:33.368Z,103164.53
2023-12-18T08:07:59.956Z,103152.44
2023-12-18T08:10:26.598Z,103155.03
2023-12-18T08:12:53.162Z,103163.66
2023-12-18T08:15:19.704Z,103161.91
2023-12-18T08:17:46.752Z,103155.88
2023-12-18T08:20:13.481Z,103158.50
2023-12-18T08:22:40.208Z,103162.78
2023-12-18T08:25:07.495Z,103162.78
2023-12-18T08:27:35.581Z,103164.53
2023-12-18T08:30:08.049Z,103152.41
2023-12-18T08:32:34.698Z,103155.88
2023-12-18T08:35:01.728Z,103160.16
2023-12-18T08:37:28.814Z,103149.81
2023-12-18T08:39:56.185Z,103162.75
2023-12-18T08:42:23.896Z,103157.59
2023-12-18T08:44:50.732Z,103166.22
2023-12-18T08:47:17.343Z,103152.41
2023-12-18T08:49:43.859Z,103148.09
2023-12-18T08:52:10.580Z,103148.94
2023-12-18T08:54:37.116Z,103141.16
2023-12-18T08:57:03.934Z,103142.03
2023-12-18T08:59:30.429Z,103144.63
2023-12-18T09:01:56.905Z,103143.72
2023-12-18T09:04:23.470Z,103137.72
2023-12-18T09:06:50.052Z,103140.28
2023-12-18T09:09:16.785Z,103138.53
2023-12-18T09:11:43.367Z,103135.97
2023-12-18T09:14:09.841Z,103137.69
2023-12-18T09:16:38.312Z,103140.28
2023-12-18T09:19:05.255Z,103138.53
2023-12-18T09:21:31.907Z,103122.97
2023-12-18T09:23:58.478Z,103128.16
2023-12-18T09:26:25.049Z,103129.88
2023-12-18T09:28:51.623Z,103126.41
2023-12-18T09:31:18.358Z,103128.13
2023-12-18T09:33:46.234Z,103117.75
2023-12-18T09:36:13.014Z,103123.78
2023-12-18T09:38:40.119Z,103110.84
2023-12-18T09:41:06.743Z,103117.72
2023-12-18T09:43:33.477Z,103122.91
2023-12-18T09:45:59.990Z,103124.66
2023-12-18T09:48:26.821Z,103116.00
2023-12-18T09:50:54.337Z,103117.72
2023-12-18T09:53:22.784Z,103121.16
2023-12-18T09:55:51.308Z,103114.22
2023-12-18T09:58:19.609Z,103103.00
2023-12-18T10:00:48.411Z,103108.16
2023-12-18T10:03:17.787Z,103098.63
2023-12-18T10:05:45.173Z,103105.53
2023-12-18T10:08:11.765Z,103103.78
2023-12-18T10:10:38.285Z,103096.03
2023-12-18T10:13:08.072Z,103097.72
2023-12-18T10:15:35.529Z,103093.38
2023-12-18T10:18:04.301Z,103089.03
2023-12-18T10:20:31.522Z,103076.91
2023-12-18T10:23:00.407Z,103083.78
2023-12-18T10:25:27.026Z,103073.38
2023-12-18T10:27:57.067Z,103075.91
2023-12-18T10:30:28.717Z,103075.91
2023-12-18T10:32:55.991Z,103070.69
2023-12-18T10:35:23.512Z,103061.16
2023-12-18T10:37:54.758Z,103062.00
2023-12-18T10:40:23.588Z,103065.47
2023-12-18T10:43:22.787Z,103062.91
2023-12-18T10:45:51.038Z,103063.75
2023-12-18T10:48:18.330Z,103068.06
2023-12-18T10:50:45.974Z,103064.63
2023-12-18T10:53:15.220Z,103062.91
2023-12-18T10:55:42.166Z,103056.81
2023-12-18T10:58:09.334Z,103056.81
2023-12-18T11:00:36.285Z,103049.91
2023-12-18T11:03:03.433Z,103049.03
2023-12-18T11:05:32.325Z,103045.53
2023-12-18T11:07:59.510Z,103049.84
2023-12-18T11:10:26.833Z,103042.94
2023-12-18T11:13:03.155Z,103046.34
2023-12-18T11:15:44.779Z,103047.22
2023-12-18T11:18:33.265Z,103028.97
2023-12-18T11:20:59.907Z,103029.84
2023-12-18T11:23:30.356Z,103033.25
2023-12-18T11:25:58.375Z,103030.63
2023-12-18T11:28:26.515Z,103018.47
2023-12-18T11:31:01.232Z,103011.53
2023-12-18T11:33:33.319Z,103019.28
2023-12-18T11:36:05.885Z,103021.00
2023-12-18T11:38:35.030Z,103020.97
2023-12-18T11:41:01.567Z,103021.84
2023-12-18T11:43:38.811Z,103020.09
2023-12-18T11:46:17.427Z,103014.03
2023-12-18T11:48:47.393Z,103006.22
2023-12-18T11:51:14.637Z,103007.97
2023-12-18T11:53:41.429Z,103005.34
2023-12-18T11:56:09.595Z,103004.47
2023-12-18T11:58:37.441Z,102989.75
2023-12-18T12:01:04.496Z,102987.16
2023-12-18T12:03:33.717Z,102993.19
2023-12-18T12:06:01.650Z,102998.38
2023-12-18T12:08:28.627Z,102987.97
2023-12-18T12:10:56.259Z,102984.53
2023-12-18T12:13:28.051Z,102989.69
2023-12-18T12:15:59.459Z,102982.72
2023-12-18T12:18:28.167Z,102986.16
2023-12-18T12:20:55.333Z,102988.75
2023-12-18T12:23:22.374Z,102980.13
2023-12-18T12:25:51.030Z,102973.16
2023-12-18T12:28:18.275Z,102960.19
2023-12-18T12:30:45.530Z,102960.16
2023-12-18T12:33:12.447Z,102960.16
2023-12-18T12:35:39.272Z,102973.16
2023-12-18T12:38:06.418Z,102966.19
2023-12-18T12:40:40.806Z,102961.00
2023-12-18T12:43:07.942Z,102955.81
2023-12-18T12:45:36.226Z,102957.56
2023-12-18T12:48:05.197Z,102945.41
2023-12-18T12:50:32.179Z,102941.97
2023-12-18T12:53:00.728Z,102941.94
2023-12-18T12:55:27.222Z,102922.84
2023-12-18T12:57:54.576Z,102930.66
2023-12-18T13:00:23.461Z,102918.53
2023-12-18T13:02:49.918Z,102920.25
2023-12-18T13:05:16.474Z,102921.16
2023-12-18T13:07:43.198Z,102932.34
2023-12-18T13:10:12.011Z,102940.16
2023-12-18T13:12:38.956Z,102934.09
2023-12-18T13:15:05.979Z,102927.16
2023-12-18T13:17:32.623Z,102923.72
2023-12-18T13:20:03.201Z,102924.59
2023-12-18T13:22:32.806Z,102918.56
2023-12-18T13:24:59.291Z,102925.50
2023-12-18T13:27:27.315Z,102919.44
2023-12-18T13:29:55.097Z,102916.88
2023-12-18T13:32:22.245Z,102909.94
2023-12-18T13:34:48.848Z,102902.16
2023-12-18T13:37:15.391Z,102906.44
2023-12-18T13:39:41.897Z,102902.16
2023-12-18T13:42:10.184Z,102886.56
2023-12-18T13:44:36.713Z,102880.50
2023-12-18T13:47:03.251Z,102877.94
2023-12-18T13:49:30.022Z,102876.25
2023-12-18T13:51:56.558Z,102881.44
2023-12-18T13:54:23.399Z,102874.50
2023-12-18T13:56:50.131Z,102874.50
2023-12-18T13:59:16.658Z,102877.13
2023-12-18T14:01:43.493Z,102888.38
2023-12-18T14:04:10.349Z,102878.03
2023-12-18T14:06:37.067Z,102875.44
2023-12-18T14:09:04.630Z,102867.63
2023-12-18T14:11:31.817Z,102866.78
2023-12-18T14:13:58.915Z,102863.34
2023-12-18T14:16:25.490Z,102867.69
2023-12-18T14:18:54.878Z,102870.31
2023-12-18T14:21:22.898Z,102870.31
2023-12-18T14:23:50.309Z,102869.41
2023-12-18T14:26:17.074Z,102863.38
2023-12-18T14:28:44.268Z,102867.72
2023-12-18T14:31:11.046Z,102867.72
2023-12-18T14:33:38.065Z,102874.66
2023-12-18T14:36:04.846Z,102872.06
2023-12-18T14:38:31.351Z,102876.41
2023-12-18T14:40:58.042Z,102872.09
2023-12-18T14:43:24.646Z,102872.97
2023-12-18T14:45:51.302Z,102868.63
2023-12-18T14:48:23.068Z,102859.13
2023-12-18T14:50:52.771Z,102838.38
2023-12-18T14:53:19.242Z,102862.63
2023-12-18T14:55:45.849Z,102862.63
2023-12-18T14:58:12.417Z,102874.78
2023-12-18T15:00:38.958Z,102872.19
2023-12-18T15:03:06.366Z,102865.25
2023-12-18T15:05:33.246Z,102874.81
2023-12-18T15:08:00.182Z,102870.50
2023-12-18T15:10:28.323Z,102864.47
2023-12-18T15:12:54.895Z,102850.63
2023-12-18T15:15:21.666Z,102856.72
2023-12-18T15:17:48.476Z,102872.31
2023-12-18T15:20:15.338Z,102865.38
2023-12-18T15:22:42.140Z,102869.69
2023-12-18T15:25:08.975Z,102855.03
2023-12-18T15:27:35.565Z,102855.91
2023-12-18T15:30:03.121Z,102854.19
2023-12-18T15:32:29.637Z,102849.88
2023-12-18T15:34:56.413Z,102850.75
2023-12-18T15:37:23.669Z,102849.03
2023-12-18T15:39:50.308Z,102837.78
2023-12-18T15:42:16.952Z,102836.09
2023-12-18T15:44:43.510Z,102832.63
2023-12-18T15:47:10.260Z,102844.75
2023-12-18T15:49:36.914Z,102840.50
2023-12-18T15:52:03.719Z,102835.28
2023-12-18T15:54:30.486Z,102825.78
2023-12-18T15:56:57.113Z,102819.72
2023-12-18T15:59:23.601Z,102830.13
2023-12-18T16:01:50.158Z,102832.72
2023-12-18T16:04:16.922Z,102838.75
2023-12-18T16:06:44.278Z,102835.31
2023-12-18T16:09:13.883Z,102829.25
2023-12-18T16:11:41.009Z,102839.69
2023-12-18T16:14:07.798Z,102837.09
2023-12-18T16:16:34.316Z,102827.59
2023-12-18T16:19:00.937Z,102839.69
2023-12-18T16:21:29.541Z,102831.00
2023-12-18T16:23:56.094Z,102830.16
2023-12-18T16:26:22.851Z,102809.41
2023-12-18T16:28:50.807Z,102802.50
2023-12-18T16:31:17.591Z,102809.44
2023-12-18T16:33:44.340Z,102808.59
2023-12-18T16:36:19.359Z,102804.25
2023-12-18T16:38:51.291Z,102785.28
2023-12-18T16:41:18.267Z,102807.78
2023-12-18T16:43:45.055Z,102799.09
2023-12-18T16:46:11.683Z,102811.22
2023-12-18T16:48:38.446Z,102819.00
2023-12-18T16:51:05.897Z,102815.56
2023-12-18T16:53:32.602Z,102843.25
2023-12-18T16:55:59.650Z,102840.69
2023-12-18T16:58:26.456Z,102839.81
2023-12-18T17:00:53.110Z,102843.25
2023-12-18T17:03:22.433Z,102832.00
2023-12-18T17:05:50.500Z,102842.44
2023-12-18T17:08:17.726Z,102842.47
2023-12-18T17:10:44.865Z,102835.53
2023-12-18T17:13:15.020Z,102824.28
2023-12-18T17:15:43.656Z,102808.72
2023-12-18T17:18:10.918Z,102800.09
2023-12-18T17:20:38.351Z,102797.50
2023-12-18T17:23:05.717Z,102783.69
2023-12-18T17:25:32.389Z,102780.25
2023-12-18T17:27:59.203Z,102769.91
2023-12-18T17:30:26.548Z,102747.47
2023-12-18T17:32:53.176Z,102751.78
2023-12-18T17:35:19.743Z,102748.38
2023-12-18T17:37:46.369Z,102741.44
2023-12-18T17:40:13.379Z,102721.56
2023-12-18T17:42:40.180Z,102722.41
2023-12-18T17:45:08.217Z,102725.88
2023-12-18T17:47:34.982Z,102729.31
2023-12-18T17:50:02.024Z,102743.19
2023-12-18T17:52:28.860Z,102749.25
2023-12-18T17:54:55.431Z,102744.97
2023-12-18T17:57:22.066Z,102741.50
2023-12-18T17:59:48.972Z,102751.00
2023-12-18T18:02:16.336Z,102728.53
2023-12-18T18:04:46.204Z,102722.50
2023-12-18T18:07:13.589Z,102722.50
2023-12-18T18:09:41.932Z,102732.03
2023-12-18T18:12:08.699Z,102745.84
2023-12-18T18:14:35.322Z,102718.22
2023-12-18T18:17:02.119Z,102735.53
2023-12-18T18:19:29.131Z,102772.72
2023-12-18T18:21:55.833Z,102764.13
2023-12-18T18:24:22.815Z,102764.97
2023-12-18T18:26:51.508Z,102761.53
2023-12-18T18:29:34.966Z,102759.84
2023-12-18T18:32:01.910Z,102733.06
2023-12-18T18:34:28.524Z,102726.19
2023-12-18T18:36:55.193Z,102719.28
2023-12-18T18:39:21.945Z,102720.19
2023-12-18T18:41:48.527Z,102720.19
2023-12-18T18:44:15.102Z,102716.78
2023-12-18T18:46:41.688Z,102703.84
2023-12-18T18:49:08.730Z,102721.19
2023-12-18T18:51:36.020Z,102743.63
2023-12-18T18:54:03.836Z,102760.91
2023-12-18T18:56:30.487Z,102764.41
2023-12-18T18:58:57.248Z,102748.88
2023-12-18T19:01:24.652Z,102739.41
2023-12-18T19:03:51.896Z,102732.50
2023-12-18T19:06:18.630Z,102723.06
2023-12-18T19:08:45.113Z,102725.66
2023-12-18T19:11:11.648Z,102736.03
2023-12-18T19:13:38.202Z,102759.34
2023-12-18T19:16:05.570Z,102749.88
2023-12-18T19:18:32.385Z,102760.22
2023-12-18T19:20:58.927Z,102741.19
2023-12-18T19:23:25.469Z,102746.38
2023-12-18T19:25:52.060Z,102753.28
2023-12-18T19:28:18.548Z,102743.84
2023-12-18T19:30:45.362Z,102733.47
2023-12-18T19:33:12.632Z,102744.69
2023-12-18T19:35:42.654Z,102749.06
2023-12-18T19:38:09.634Z,102753.38
2023-12-18T19:40:36.287Z,102752.53
2023-12-18T19:43:06.145Z,102754.31
2023-12-18T19:45:33.344Z,102755.19
2023-12-18T19:48:00.116Z,102748.25
2023-12-18T19:50:27.176Z,102746.53
2023-12-18T19:52:54.662Z,102728.38
2023-12-18T19:55:21.308Z,102732.72
2023-12-18T19:57:48.250Z,102734.47
2023-12-18T20:00:16.299Z,102744.81
2023-12-18T20:02:44.038Z,102737.94
2023-12-18T20:05:11.034Z,102743.09
2023-12-18T20:07:38.120Z,102727.59
2023-12-18T20:10:05.149Z,102723.25
2023-12-18T20:12:31.860Z,102718.97
2023-12-18T20:14:58.345Z,102719.84
2023-12-18T20:17:27.488Z,102721.56
2023-12-18T20:19:56.622Z,102722.47
2023-12-18T20:22:24.555Z,102718.97
2023-12-18T20:24:51.340Z,102713.84
2023-12-18T20:27:18.345Z,102719.91
2023-12-18T20:29:45.721Z,102715.56
2023-12-18T20:32:12.402Z,102722.47
2023-12-18T20:34:39.373Z,102694.00
2023-12-18T20:37:06.146Z,102670.72
2023-12-18T20:39:32.932Z,102658.59
2023-12-18T20:41:59.515Z,102680.19
2023-12-18T20:44:26.080Z,102668.94
2023-12-18T20:46:52.630Z,102651.66
2023-12-18T20:49:19.246Z,102656.00
2023-12-18T20:51:45.989Z,102652.53
2023-12-18T20:54:12.581Z,102660.31
2023-12-18T20:56:39.225Z,102640.44
2023-12-18T20:59:06.847Z,102641.31
2023-12-18T21:01:33.828Z,102641.31
2023-12-18T21:04:00.762Z,102641.31
2023-12-18T21:06:28.609Z,102636.16
2023-12-18T21:08:55.496Z,102630.13
2023-12-18T21:11:22.139Z,102624.94
2023-12-18T21:13:48.736Z,102622.34
2023-12-18T21:16:15.633Z,102618.06
2023-12-18T21:18:42.867Z,102618.06
2023-12-18T21:21:09.962Z,102615.47
2023-12-18T21:23:36.771Z,102612.00
2023-12-18T21:26:05.088Z,102603.34
2023-12-18T21:28:32.079Z,102605.03
2023-12-18T21:30:58.786Z,102612.88
2023-12-18T21:33:26.327Z,102626.66
2023-12-18T21:35:53.149Z,102643.03
2023-12-18T21:38:19.672Z,102649.97
2023-12-18T21:40:46.420Z,102665.50
2023-12-18T21:43:12.940Z,102666.38
2023-12-18T21:45:39.695Z,102666.38
2023-12-18T21:48:07.043Z,102668.13
2023-12-18T21:50:40.005Z,102662.06
2023-12-18T21:53:07.801Z,102652.53
2023-12-18T21:55:34.436Z,102650.81
2023-12-18T21:58:01.315Z,102642.19
2023-12-18T22:00:29.817Z,102638.72
2023-12-18T22:02:58.348Z,102634.41
2023-12-18T22:05:25.171Z,102622.31
2023-12-18T22:07:51.978Z,102600.75
2023-12-18T22:10:18.799Z,102599.91
2023-12-18T22:12:45.619Z,102608.53
2023-12-18T22:15:13.434Z,102608.53
2023-12-18T22:17:39.997Z,102621.53
2023-12-18T22:20:12.208Z,102611.16
2023-12-18T22:22:39.341Z,102595.63
2023-12-18T22:25:06.549Z,102576.63
2023-12-18T22:27:33.119Z,102576.63
2023-12-18T22:29:59.571Z,102587.03
2023-12-18T22:32:26.035Z,102593.09
2023-12-18T22:34:53.052Z,102593.09
2023-12-18T22:37:19.638Z,102586.19
2023-12-18T22:39:46.257Z,102574.97
2023-12-18T22:42:12.786Z,102581.03
2023-12-18T22:44:39.495Z,102584.47
2023-12-18T22:47:06.351Z,102600.00
2023-12-18T22:49:32.883Z,102593.97
2023-12-18T22:51:59.699Z,102612.94
2023-12-18T22:54:26.333Z,102597.38
2023-12-18T22:56:52.848Z,102606.94
2023-12-18T22:59:19.437Z,102597.41
2023-12-18T23:01:46.033Z,102597.41
2023-12-18T23:04:12.732Z,102600.00
2023-12-18T23:06:39.362Z,102599.16
2023-12-18T23:09:05.903Z,102593.09
2023-12-18T23:11:32.522Z,102593.09
2023-12-18T23:13:59.152Z,102581.88
2023-12-18T23:16:25.756Z,102584.44
2023-12-18T23:18:52.323Z,102587.03
2023-12-18T23:21:18.977Z,102579.28
2023-12-18T23:23:45.461Z,102587.94
2023-12-18T23:26:11.931Z,102556.91
2023-12-18T23:28:38.911Z,102555.16
2023-12-18T23:31:05.857Z,102553.44
2023-12-18T23:33:32.888Z,102542.25
2023-12-18T23:36:00.090Z,102552.59
2023-12-18T23:38:27.088Z,102560.38
2023-12-18T23:40:54.209Z,102565.56
2023-12-18T23:43:20.832Z,102569.03
2023-12-18T23:45:47.479Z,102575.06
2023-12-18T23:48:14.081Z,102576.78
2023-12-18T23:50:41.125Z,102569.03
2023-12-18T23:53:08.467Z,102565.56
2023-12-18T23:55:35.057Z,102549.16
2023-12-18T23:58:02.329Z,102551.75
